Time;durP1;ratioP1;P1;durP2;ratioP2;P2;SDS_P1;SDS_P2;PMS_P1;PMS_P2;Temp;Humidity;BMP_temperature;BMP_pressure;BME280_temperature;BME280_humidity;BME280_pressure;Samples;Min_cycle;Max_cycle;Signal;HPM_P1;HPM_P2
2022/04/26 03:43:55;;;;;;;21.20;17.67;;;;;;;13.75;65.45;98507.59;4154363;28;20317;-32
2022/04/26 03:45:58;;;;;;;20.80;17.87;;;;;;;13.55;66.11;98542.34;4158153;28;20236;-32
2022/04/26 03:47:59;;;;;;;22.40;18.70;;;;;;;13.55;65.76;98528.16;4160885;28;20228;-32
2022/04/26 03:50:01;;;;;;;21.33;18.23;;;;;;;12.72;68.94;98617.38;4158205;28;20236;-30
2022/04/26 03:52:03;;;;;;;29.97;25.90;;;;;;;12.69;68.91;98604.47;4159086;28;20745;-30
2022/04/26 03:54:05;;;;;;;33.67;27.67;;;;;;;12.45;70.07;98651.13;4164306;28;20240;-33
2022/04/26 03:56:08;;;;;;;39.77;33.10;;;;;;;12.31;70.47;98658.25;4162411;28;20248;-32
2022/04/26 03:58:10;;;;;;;43.80;33.63;;;;;;;12.19;72.05;98689.13;4155579;28;20232;-33
2022/04/26 04:00:12;;;;;;;41.67;34.80;;;;;;;13.29;67.91;98556.53;4161262;28;20926;-32
2022/04/26 04:02:19;;;;;;;38.93;31.47;;;;;;;13.11;68.19;98575.00;4157108;28;20318;-32
2022/04/26 04:04:21;;;;;;;53.60;39.77;;;;;;;12.52;70.27;98646.66;4160239;28;20231;-32
2022/04/26 04:06:23;;;;;;;58.07;42.13;;;;;;;12.78;69.93;98621.13;4166418;28;20224;-32
2022/04/26 04:08:25;;;;;;;44.97;35.53;;;;;;;12.54;70.06;98617.97;4163562;28;20232;-33
2022/04/26 04:10:51;;;;;;;45.90;35.83;;;;;;;12.69;69.75;98607.16;4162685;28;20332;-32
2022/04/26 04:13:18;;;;;;;43.10;34.10;;;;;;;13.33;67.43;98552.44;4162587;28;20226;-32
2022/04/26 04:15:46;;;;;;;42.90;33.10;;;;;;;13.11;67.97;98567.00;4166277;28;20237;-32
2022/04/26 04:20:56;;;;;;;43.13;34.03;;;;;;;13.17;67.19;98569.69;4161100;28;20231;-32
2022/04/26 04:23:22;;;;;;;37.67;32.93;;;;;;;13.04;67.67;98583.00;4167672;28;20263;-32
2022/04/26 04:25:48;;;;;;;36.93;31.27;;;;;;;12.75;68.55;98622.31;4166642;28;20630;-33
2022/04/26 04:28:14;;;;;;;26.73;22.00;;;;;;;12.92;67.13;98609.47;4166872;28;20227;-32
2022/04/26 04:30:40;;;;;;;22.50;20.00;;;;;;;12.91;67.85;98633.69;4170540;28;20247;-33
2022/04/26 04:33:07;;;;;;;23.80;20.03;;;;;;;12.42;69.08;98676.34;4167441;28;20243;-33
2022/04/26 04:35:33;;;;;;;21.80;18.50;;;;;;;12.38;69.91;98691.09;4165522;28;20304;-33
2022/04/26 04:37:59;;;;;;;21.70;18.47;;;;;;;12.70;68.07;98653.28;4168408;28;20277;-32
2022/04/26 04:40:25;;;;;;;22.87;18.73;;;;;;;12.96;67.15;98633.88;4160111;28;20866;-32
2022/04/26 04:42:51;;;;;;;22.17;19.20;;;;;;;12.69;67.81;98655.16;4159062;28;20310;-32
2022/04/26 04:45:17;;;;;;;24.80;21.33;;;;;;;12.66;67.56;98655.53;4159159;28;20230;-32
2022/04/26 04:47:43;;;;;;;24.17;21.57;;;;;;;12.82;67.39;98663.16;4166198;28;20223;-32
2022/04/26 04:50:09;;;;;;;23.97;21.03;;;;;;;12.79;66.95;98655.59;4162674;28;20754;-32
2022/04/26 04:52:36;;;;;;;23.90;20.83;;;;;;;12.55;68.02;98688.91;4163984;28;20227;-31
2022/04/26 04:55:02;;;;;;;22.57;19.13;;;;;;;11.75;69.59;98749.63;4162718;28;20234;-32
2022/04/26 04:57:28;;;;;;;21.57;18.73;;;;;;;12.47;68.83;98703.25;4163115;28;20234;-32
2022/04/26 04:59:54;;;;;;;22.20;19.70;;;;;;;12.79;66.76;98642.25;4163707;28;20233;-32
2022/04/26 05:02:20;;;;;;;23.13;19.33;;;;;;;12.38;68.71;98714.25;4169105;28;20745;-32
2022/04/26 05:04:47;;;;;;;21.93;19.33;;;;;;;12.53;68.25;98704.28;4154640;28;20280;-32
2022/04/26 05:07:13;;;;;;;22.20;19.63;;;;;;;12.20;69.25;98736.06;4166222;28;20226;-32
2022/04/26 05:09:39;;;;;;;24.57;19.67;;;;;;;11.91;70.96;98772.53;4164334;28;20326;-32
2022/04/26 05:12:05;;;;;;;22.20;19.80;;;;;;;12.71;68.10;98677.09;4170464;28;20231;-31
2022/04/26 05:14:30;;;;;;;24.67;19.87;;;;;;;12.89;67.22;98641.88;4165517;28;20257;-31
2022/04/26 05:16:56;;;;;;;21.87;18.57;;;;;;;12.07;70.99;98758.94;4158246;28;20236;-32
2022/04/26 05:19:21;;;;;;;22.13;19.23;;;;;;;11.99;70.68;98756.41;4164056;28;20231;-33
2022/04/26 05:21:47;;;;;;;26.10;19.90;;;;;;;12.84;67.85;98653.16;4168040;28;20328;-32
2022/04/26 05:26:56;;;;;;;22.93;19.67;;;;;;;12.79;67.52;98655.59;4163360;28;20238;-32
2022/04/26 05:29:22;;;;;;;24.23;19.57;;;;;;;12.08;69.38;98735.78;4166379;28;20226;-32
2022/04/26 05:31:48;;;;;;;23.53;19.77;;;;;;;12.22;69.44;98732.22;4161256;28;20235;-32
2022/04/26 05:34:14;;;;;;;23.30;19.00;;;;;;;11.83;70.04;98770.81;4158901;28;20273;-30
2022/04/26 05:36:40;;;;;;;25.73;18.93;;;;;;;12.11;69.52;98757.53;4160693;28;20227;-30
2022/04/26 05:39:06;;;;;;;20.20;18.03;;;;;;;12.19;69.41;98745.09;4163774;28;20236;-30
2022/04/26 05:41:32;;;;;;;21.63;18.47;;;;;;;11.76;69.90;98774.41;4162605;28;20764;-30
2022/04/26 05:43:58;;;;;;;21.03;16.93;;;;;;;12.60;67.83;98701.66;4165438;28;20247;-30
2022/04/26 05:46:24;;;;;;;20.10;16.47;;;;;;;12.50;67.34;98695.88;4165715;28;20247;-30
2022/04/26 05:48:50;;;;;;;18.83;16.50;;;;;;;12.16;68.11;98726.84;4177461;22;20464;-66
2022/04/26 05:51:17;;;;;;;19.77;16.90;;;;;;;12.08;69.19;98757.94;4188943;28;20238;-67
2022/04/26 05:53:43;;;;;;;16.30;14.60;;;;;;;11.38;70.04;98795.97;4194975;28;20333;-65
2022/04/26 05:56:10;;;;;;;16.67;14.80;;;;;;;11.99;68.96;98772.41;4188014;28;20272;-65
2022/04/26 05:58:36;;;;;;;18.90;16.60;;;;;;;11.79;69.99;98771.38;4195399;28;20242;-65
2022/04/26 06:01:03;;;;;;;16.87;15.07;;;;;;;11.86;70.07;98780.28;4189578;28;20315;-67
2022/04/26 06:03:29;;;;;;;17.13;15.10;;;;;;;11.55;69.86;98789.38;4189915;28;20285;-67
2022/04/26 06:05:55;;;;;;;16.97;15.27;;;;;;;11.61;69.59;98783.31;4185894;28;20735;-65
2022/04/26 06:08:22;;;;;;;18.33;16.10;;;;;;;12.15;68.98;98757.16;4188434;28;20241;-66
2022/04/26 06:10:48;;;;;;;17.40;14.87;;;;;;;11.89;69.57;98787.91;4184516;28;20226;-67
2022/04/26 06:13:15;;;;;;;19.13;15.63;;;;;;;12.09;68.61;98756.91;4189678;28;20280;-67
2022/04/26 06:15:41;;;;;;;17.67;15.77;;;;;;;11.76;68.70;98775.22;4195764;28;20233;-65
2022/04/26 06:18:07;;;;;;;16.10;14.40;;;;;;;11.50;70.19;98818.41;4189864;28;20738;-65
2022/04/26 06:20:33;;;;;;;17.83;15.90;;;;;;;11.97;68.23;98750.47;4184211;28;20280;-66
2022/04/26 06:23:00;;;;;;;19.03;16.17;;;;;;;12.29;67.33;98734.94;4187101;28;20242;-65
2022/04/26 06:25:26;;;;;;;17.60;15.70;;;;;;;12.78;66.29;98693.94;4197306;28;20234;-67
2022/04/26 15:17:55;;;;;;;4.50;4.03;;;;;;;13.53;60.89;99010.94;4201761;28;20313;-32
2022/04/26 15:19:57;;;;;;;5.00;4.50;;;;;;;12.77;61.45;99064.94;4203594;28;20227;-31
2022/04/26 15:21:59;;;;;;;5.07;4.40;;;;;;;13.21;61.79;99063.91;4199859;28;20749;-33
2022/04/26 15:24:01;;;;;;;5.17;4.53;;;;;;;14.15;59.61;98942.38;4198724;28;20243;-33
2022/04/26 15:26:06;;;;;;;6.40;4.40;;;;;;;14.35;58.65;98929.06;4199736;28;20227;-33
2022/04/26 15:28:10;;;;;;;5.20;4.70;;;;;;;13.67;59.49;98958.41;4201384;28;20863;-33
2022/04/26 15:30:12;;;;;;;7.10;5.20;;;;;;;13.84;60.79;98983.81;4200115;28;20238;-33
2022/04/26 15:32:14;;;;;;;6.20;5.07;;;;;;;13.00;62.52;99083.44;4200468;28;20707;-33
2022/04/26 15:34:15;;;;;;;5.63;5.00;;;;;;;13.96;59.60;98952.81;4198544;28;20284;-31
2022/04/26 15:36:18;;;;;;;6.67;5.53;;;;;;;11.62;60.94;99122.28;4204292;28;20230;-33
2022/04/26 15:38:20;;;;;;;6.10;5.43;;;;;;;12.21;62.40;99113.53;4204468;28;20234;-33
2022/04/26 15:40:22;;;;;;;6.03;4.70;;;;;;;12.51;63.28;99127.63;4188822;28;20227;-32
2022/04/26 15:42:24;;;;;;;6.03;4.90;;;;;;;13.64;61.84;99005.06;4201544;28;20691;-33
2022/04/26 15:44:26;;;;;;;6.17;5.40;;;;;;;13.90;61.61;98968.81;4204824;28;20843;-33
2022/04/26 15:46:28;;;;;;;8.03;5.27;;;;;;;14.21;60.29;98956.78;4206122;28;20226;-34
2022/04/26 15:48:44;;;;;;;6.20;5.47;;;;;;;14.37;58.76;98928.84;4197002;28;20231;-33
2022/04/26 15:50:46;;;;;;;5.83;5.23;;;;;;;14.15;59.42;98969.09;4203270;28;20855;-33
2022/04/26 15:52:48;;;;;;;6.43;5.67;;;;;;;14.05;59.73;98990.88;4191424;28;20747;-33
2022/04/26 15:54:49;;;;;;;6.57;5.87;;;;;;;14.25;59.83;98993.59;4207204;28;20234;-34
2022/04/26 15:56:51;;;;;;;8.83;7.03;;;;;;;13.29;62.25;99119.84;4209435;28;20283;-32
2022/04/26 15:58:54;;;;;;;8.60;6.40;;;;;;;12.73;64.73;99184.53;4207434;28;20222;-33
2022/04/26 16:00:57;;;;;;;8.10;5.97;;;;;;;12.85;64.05;99183.03;4203901;28;20237;-33
2022/04/26 16:02:59;;;;;;;6.10;5.50;;;;;;;12.65;65.70;99193.44;4205350;28;20696;-33
2022/04/26 16:05:01;;;;;;;6.13;5.07;;;;;;;13.08;62.31;99142.03;4193321;28;20262;-33
2022/04/26 16:07:07;;;;;;;5.33;4.83;;;;;;;12.94;62.33;99146.41;4209178;28;20606;-33
2022/04/26 16:20:51;;;;;;;6.03;4.83;;;;;;;12.87;61.81;99174.03;4205728;28;20290;-32
2022/04/26 16:22:53;;;;;;;6.03;5.30;;;;;;;12.78;62.52;99159.97;4209472;28;20742;-33
2022/04/26 16:24:55;;;;;;;6.13;4.90;;;;;;;12.66;63.57;99173.78;4209318;28;20263;-32
2022/04/26 16:26:57;;;;;;;6.80;5.70;;;;;;;12.78;63.84;99176.78;4209924;28;20765;-33
2022/04/26 16:28:59;;;;;;;6.43;5.23;;;;;;;12.92;63.48;99144.94;4209561;28;20223;-32
2022/04/26 16:31:03;;;;;;;7.17;4.97;;;;;;;12.20;65.45;99187.34;4210063;28;20616;-34
2022/04/26 16:33:05;;;;;;;7.67;5.40;;;;;;;13.13;63.41;99101.41;4200363;28;20665;-36
2022/04/26 16:35:10;;;;;;;8.60;5.97;;;;;;;12.96;64.23;99146.22;4189831;28;20763;-33
2022/04/26 16:37:12;;;;;;;6.40;5.80;;;;;;;13.21;63.41;99104.81;4207199;28;20268;-33
2022/04/26 16:39:14;;;;;;;6.93;6.17;;;;;;;12.18;65.81;99177.84;4208587;28;20234;-33
2022/04/26 16:41:21;;;;;;;7.10;5.90;;;;;;;12.50;64.74;99147.31;4208457;28;20237;-33
2022/04/26 16:43:23;;;;;;;7.13;6.17;;;;;;;12.58;65.22;99168.53;4204271;28;20918;-32
2022/04/26 16:45:25;;;;;;;8.17;6.80;;;;;;;13.25;63.91;99088.38;4208674;28;20535;-34
2022/04/26 16:47:27;;;;;;;8.87;6.73;;;;;;;12.84;65.39;99149.38;4209182;28;20234;-33
2022/04/26 16:49:30;;;;;;;7.70;6.70;;;;;;;13.00;63.43;99102.94;4209749;28;20799;-33
2022/04/26 16:51:34;;;;;;;7.00;5.50;;;;;;;13.42;63.37;99078.28;4211837;28;20249;-34
2022/04/26 16:53:36;;;;;;;9.13;6.47;;;;;;;13.75;62.26;99027.72;4208637;28;20223;-33
2022/04/26 16:55:38;;;;;;;7.43;6.43;;;;;;;13.26;63.20;99082.03;4209309;28;20226;-32
2022/04/26 16:57:40;;;;;;;8.67;6.10;;;;;;;13.92;61.54;99012.19;4210705;28;20703;-32
2022/04/26 16:59:41;;;;;;;6.23;5.30;;;;;;;13.72;62.09;99031.63;4208564;28;20288;-33
2022/04/26 17:01:44;;;;;;;6.47;5.53;;;;;;;13.99;61.30;99017.56;4208931;28;20226;-34
2022/04/26 17:03:46;;;;;;;6.53;5.57;;;;;;;13.84;61.80;99023.06;4210564;28;20237;-34
2022/04/26 17:05:48;;;;;;;7.63;5.10;;;;;;;13.69;62.63;99061.38;4209837;28;20232;-32
2022/04/26 17:07:50;;;;;;;6.67;5.03;;;;;;;13.93;60.67;99005.84;4208894;28;20231;-34
2022/04/26 17:09:52;;;;;;;6.33;5.37;;;;;;;12.91;65.15;99138.78;4211471;28;20249;-33
2022/04/26 17:11:54;;;;;;;5.10;4.60;;;;;;;12.55;66.43;99152.09;4209797;28;20637;-33
2022/04/26 17:13:56;;;;;;;6.67;5.57;;;;;;;12.19;68.67;99191.00;4206262;28;20235;-32
2022/04/26 17:15:58;;;;;;;5.43;4.57;;;;;;;12.35;66.82;99168.66;4205014;28;20281;-33
2022/04/26 17:18:01;;;;;;;5.70;4.50;;;;;;;12.46;67.64;99170.84;4208234;28;20241;-33
2022/04/26 17:20:04;;;;;;;6.43;5.00;;;;;;;12.35;68.08;99184.66;4208016;28;20234;-34
2022/04/26 17:22:06;;;;;;;6.93;6.20;;;;;;;11.52;70.89;99224.53;4204084;28;20243;-33
2022/04/26 17:26:30;;;;;;;8.87;7.13;;;;;;;12.92;66.75;99100.41;4207109;28;21183;-34
2022/04/26 17:28:32;;;;;;;8.50;6.90;;;;;;;12.66;67.76;99136.44;4210069;28;20246;-33
2022/04/26 17:30:34;;;;;;;8.30;6.77;;;;;;;12.66;67.88;99127.63;4209055;28;20711;-34
2022/04/26 17:32:36;;;;;;;7.10;5.63;;;;;;;12.55;67.36;99144.09;4208069;28;20231;-34
2022/04/26 17:34:37;;;;;;;6.93;6.20;;;;;;;12.66;66.85;99135.63;4207305;28;20715;-33
2022/04/26 17:36:42;;;;;;;7.70;6.63;;;;;;;12.76;67.22;99122.81;4200595;28;20226;-32
2022/04/26 17:39:04;;;;;;;10.73;7.43;;;;;;;12.80;67.18;99149.91;4206805;28;20223;-33
2022/04/26 17:41:05;;;;;;;7.93;6.60;;;;;;;13.66;63.36;99050.28;4206544;28;20719;-33
2022/04/26 17:43:08;;;;;;;11.03;7.70;;;;;;;12.49;68.01;99180.34;4203331;28;20238;-32
2022/04/26 17:45:10;;;;;;;8.43;7.30;;;;;;;13.06;66.48;99128.03;4204747;28;20295;-32
2022/04/26 17:47:12;;;;;;;11.57;9.10;;;;;;;13.56;64.01;99047.94;4207543;28;20245;-33
2022/04/26 17:49:28;;;;;;;9.73;8.70;;;;;;;13.32;64.98;99081.28;4205073;28;20312;-33
2022/04/26 17:51:30;;;;;;;7.87;7.07;;;;;;;13.54;64.10;99066.84;4207809;28;20230;-41
2022/04/26 17:58:19;;;;;;;8.47;6.60;;;;;;;13.92;61.94;99045.13;4208220;28;20234;-37
2022/04/26 18:00:22;;;;;;;11.07;7.13;;;;;;;12.98;65.06;99141.53;4188920;28;20231;-41
2022/04/26 18:02:23;;;;;;;10.20;8.97;;;;;;;13.22;64.63;99143.81;4207793;28;20278;-42
2022/04/26 18:04:26;;;;;;;7.87;7.10;;;;;;;13.86;61.11;99061.94;4204921;28;20234;-40
2022/04/26 18:06:28;;;;;;;9.50;8.33;;;;;;;13.78;62.49;99088.78;4206651;28;20223;-36
2022/04/26 18:08:29;;;;;;;9.80;8.07;;;;;;;13.71;62.37;99091.41;4204500;28;20226;-38
2022/04/26 18:10:32;;;;;;;7.63;6.83;;;;;;;14.10;60.85;99065.13;4206905;28;20230;-37
2022/04/26 18:12:37;;;;;;;8.77;7.33;;;;;;;14.22;60.29;99049.34;4208020;28;20443;-37
2022/04/26 18:14:39;;;;;;;6.93;5.67;;;;;;;13.99;60.80;99063.84;4187344;28;20229;-37
2022/04/26 18:16:41;;;;;;;7.60;6.50;;;;;;;13.90;61.18;99094.44;4205525;28;20234;-42
2022/04/26 18:18:42;;;;;;;7.03;6.33;;;;;;;14.08;60.96;99067.19;4203361;28;20276;-37
2022/04/26 18:20:45;;;;;;;7.33;6.43;;;;;;;13.75;61.41;99090.00;4204037;28;20653;-42
2022/04/26 18:22:46;;;;;;;6.33;5.73;;;;;;;14.07;61.04;99084.22;4203298;28;20711;-43
2022/04/26 18:24:48;;;;;;;6.30;5.70;;;;;;;13.62;62.59;99127.31;4202563;28;20238;-39
2022/04/26 18:26:50;;;;;;;8.43;6.43;;;;;;;14.35;60.23;99046.72;4202340;28;20234;-38
2022/04/26 18:28:57;;;;;;;6.80;6.10;;;;;;;14.18;60.42;99064.16;4209785;28;20287;-40
2022/04/26 18:30:59;;;;;;;6.57;5.63;;;;;;;13.68;61.88;99121.19;4206757;28;20226;-41
2022/04/26 18:33:01;;;;;;;7.50;6.20;;;;;;;13.84;61.69;99119.25;4205599;28;20219;-39
2022/04/26 18:35:03;;;;;;;6.73;5.53;;;;;;;12.90;64.44;99205.69;4207556;28;20246;-39
2022/04/26 18:37:05;;;;;;;6.80;6.10;;;;;;;13.58;63.19;99176.78;4207227;28;20246;-40
2022/04/26 18:39:08;;;;;;;6.00;5.33;;;;;;;13.44;63.66;99186.53;4206493;28;20238;-42
2022/04/26 18:41:11;;;;;;;6.90;5.77;;;;;;;13.25;63.50;99192.50;4204594;28;20230;-39
2022/04/26 18:43:13;;;;;;;6.87;5.73;;;;;;;13.58;62.86;99161.59;4204586;28;20226;-40
2022/04/26 18:45:17;;;;;;;6.50;5.70;;;;;;;13.77;62.12;99154.75;4206584;28;20242;-36
2022/04/26 18:47:19;;;;;;;6.83;5.77;;;;;;;14.38;60.31;99086.44;4200064;28;20233;-35
2022/04/26 18:49:29;;;;;;;6.60;5.90;;;;;;;14.17;60.92;99089.22;4204807;28;20317;-35
2022/04/26 18:51:30;;;;;;;6.20;5.13;;;;;;;14.05;60.98;99107.66;4202024;28;20308;-34
2022/04/26 18:53:32;;;;;;;5.37;4.70;;;;;;;13.95;60.96;99135.56;4202152;28;20226;-37
2022/04/26 18:55:34;;;;;;;5.43;4.70;;;;;;;13.11;62.72;99232.44;4203761;28;20731;-41
2022/04/26 18:57:36;;;;;;;4.60;4.20;;;;;;;12.43;63.72;99290.38;4201853;28;20637;-36
2022/04/26 18:59:41;;;;;;;4.90;4.07;;;;;;;12.52;63.78;99296.47;4200118;28;20258;-40
2022/04/26 19:01:43;;;;;;;6.27;4.33;;;;;;;12.42;64.71;99308.22;4205778;28;20284;-38
2022/04/26 19:03:47;;;;;;;5.10;4.60;;;;;;;13.03;63.70;99261.88;4198772;28;20696;-37
2022/04/26 19:05:50;;;;;;;4.73;4.27;;;;;;;13.00;63.58;99267.59;4203947;28;20230;-35
2022/04/26 19:07:51;;;;;;;6.53;4.60;;;;;;;13.05;64.05;99277.72;4203110;28;20249;-36
2022/04/26 19:12:18;;;;;;;4.90;4.47;;;;;;;13.06;63.22;99277.50;4203498;28;20238;-35
2022/04/26 19:14:20;;;;;;;4.93;4.43;;;;;;;13.05;62.78;99264.38;4202491;28;20233;-35
2022/04/26 19:16:22;;;;;;;4.30;3.90;;;;;;;13.11;62.68;99272.47;4204529;28;20298;-39
2022/04/26 19:18:27;;;;;;;4.50;3.70;;;;;;;12.75;63.03;99291.88;4205062;28;20241;-39
2022/04/26 19:20:34;;;;;;;5.63;4.10;;;;;;;12.82;62.43;99294.63;4186900;28;20328;-36
2022/04/26 19:22:36;;;;;;;4.20;3.80;;;;;;;12.44;63.99;99316.88;4204566;28;20858;-40
2022/04/26 19:24:38;;;;;;;4.33;3.83;;;;;;;12.47;63.47;99339.66;4203944;28;20239;-37
2022/04/26 19:26:41;;;;;;;3.57;3.27;;;;;;;11.81;66.45;99372.13;4202850;28;20607;-43
2022/04/26 19:28:42;;;;;;;4.30;3.30;;;;;;;12.41;64.13;99357.22;4203455;28;20238;-39
2022/04/26 19:30:44;;;;;;;3.60;3.30;;;;;;;13.31;61.26;99258.50;4210905;28;20234;-36
2022/04/26 19:32:46;;;;;;;3.93;3.53;;;;;;;12.94;61.80;99292.34;4208084;28;20699;-42
2022/04/26 19:34:48;;;;;;;3.87;3.23;;;;;;;12.69;62.76;99323.78;4208811;28;20257;-35
2022/04/26 19:36:50;;;;;;;4.30;3.90;;;;;;;12.96;62.10;99309.00;4209055;28;20237;-41
2022/04/26 19:38:52;;;;;;;3.97;3.50;;;;;;;13.15;60.62;99273.72;4212841;28;20237;-41
2022/04/26 19:40:54;;;;;;;3.60;3.17;;;;;;;13.21;59.95;99264.97;4207103;28;20297;-41
2022/04/26 19:42:56;;;;;;;3.63;3.33;;;;;;;13.42;59.34;99249.19;4209242;28;20276;-39
2022/04/26 19:44:58;;;;;;;3.40;3.10;;;;;;;13.36;58.80;99261.44;4204772;28;20610;-37
2022/04/26 19:47:00;;;;;;;3.20;2.90;;;;;;;13.18;59.47;99284.03;4206358;28;20226;-37
2022/04/26 19:49:02;;;;;;;3.67;3.30;;;;;;;12.35;61.84;99354.44;4204740;28;20253;-41
2022/04/26 19:53:25;;;;;;;3.30;3.00;;;;;;;13.30;59.35;99289.72;4208167;28;20280;-38
2022/04/26 19:55:26;;;;;;;3.47;3.10;;;;;;;13.11;59.93;99312.50;4180327;27;20274;-39
2022/04/26 19:57:28;;;;;;;3.00;2.80;;;;;;;12.71;61.31;99349.28;4206740;28;20238;-39
2022/04/26 19:59:30;;;;;;;3.10;2.80;;;;;;;12.67;61.37;99355.97;4201284;28;20597;-35
2022/04/26 20:01:44;;;;;;;3.43;3.07;;;;;;;13.18;59.06;99280.53;4207423;28;20241;-39
2022/04/26 20:04:03;;;;;;;3.67;3.17;;;;;;;12.93;59.82;99318.22;4207286;28;20257;-38
2022/04/26 20:06:05;;;;;;;3.17;2.97;;;;;;;13.31;58.63;99275.34;4181770;27;20302;-42
2022/04/26 20:08:07;;;;;;;3.17;2.87;;;;;;;13.28;58.54;99272.22;4206578;28;20231;-38
2022/04/26 20:10:10;;;;;;;3.10;2.80;;;;;;;13.18;58.87;99289.38;4206127;28;20231;-38
2022/04/26 20:12:12;;;;;;;3.40;3.10;;;;;;;11.80;63.31;99391.81;4192459;28;20285;-35
2022/04/26 20:14:14;;;;;;;3.93;3.30;;;;;;;11.91;63.24;99399.44;4207408;28;20243;-39
2022/04/26 20:16:16;;;;;;;4.57;3.53;;;;;;;12.75;60.78;99350.56;4188708;28;21014;-33
2022/04/26 20:18:18;;;;;;;4.13;3.70;;;;;;;12.41;62.10;99383.88;4206864;28;20226;-44
2022/04/26 20:20:20;;;;;;;6.43;3.40;;;;;;;12.92;60.35;99334.41;4204380;28;20226;-36
2022/04/26 20:22:26;;;;;;;4.60;3.40;;;;;;;12.79;60.49;99338.53;4204456;28;20230;-38
2022/04/26 20:24:27;;;;;;;3.97;3.60;;;;;;;13.11;59.53;99296.47;4205070;28;20231;-39
2022/04/26 20:31:10;;;;;;;3.80;3.40;;;;;;;12.70;60.97;99352.94;4204584;28;20226;-39
2022/04/26 20:33:12;;;;;;;3.17;2.97;;;;;;;12.79;60.72;99343.84;4207970;28;20227;-44
2022/04/26 20:35:14;;;;;;;3.83;3.40;;;;;;;12.94;60.23;99321.69;4208412;28;20238;-42
2022/04/26 20:37:16;;;;;;;4.57;3.57;;;;;;;13.33;59.37;99285.81;4209843;28;20698;-39
2022/04/26 20:39:18;;;;;;;3.73;3.43;;;;;;;13.10;60.15;99302.00;4208962;28;20235;-38
2022/04/26 20:41:19;;;;;;;6.63;3.73;;;;;;;12.81;59.86;99328.50;4209206;28;20242;-40
2022/04/26 20:43:21;;;;;;;3.80;3.40;;;;;;;12.81;60.29;99338.34;4207956;28;20234;-42
2022/04/26 20:45:24;;;;;;;5.10;4.20;;;;;;;12.49;61.28;99377.66;4203715;28;20296;-39
2022/04/26 20:47:26;;;;;;;4.20;3.80;;;;;;;12.10;62.14;99406.13;4206640;28;20226;-42
2022/04/26 20:49:28;;;;;;;6.87;4.07;;;;;;;12.04;62.98;99419.31;4207550;28;20284;-40
2022/04/26 20:51:30;;;;;;;5.20;3.73;;;;;;;12.45;61.85;99384.34;4209565;28;20226;-41
2022/04/26 20:53:32;;;;;;;4.30;3.80;;;;;;;12.56;61.47;99377.78;4211095;28;21086;-40
2022/04/26 20:55:33;;;;;;;4.03;3.73;;;;;;;12.71;61.60;99359.09;4209882;28;20312;-41
2022/04/26 20:57:35;;;;;;;6.93;4.03;;;;;;;12.68;61.77;99354.97;4209933;28;20238;-41
2022/04/26 20:59:37;;;;;;;3.93;3.53;;;;;;;12.95;60.80;99331.38;4209071;28;20685;-39
2022/04/26 21:01:39;;;;;;;4.37;3.97;;;;;;;12.85;61.04;99343.09;4209367;28;20703;-40
2022/04/26 21:03:41;;;;;;;4.30;3.90;;;;;;;12.67;61.87;99369.31;4208925;28;20238;-40
2022/04/26 21:05:43;;;;;;;3.97;3.50;;;;;;;12.68;62.33;99381.66;4208098;28;20230;-36
2022/04/26 21:07:45;;;;;;;7.00;4.10;;;;;;;12.59;62.67;99388.06;4209111;28;20299;-40
2022/04/26 21:09:47;;;;;;;5.13;4.00;;;;;;;12.82;61.73;99356.00;4207383;28;20234;-37
2022/04/26 21:11:48;;;;;;;3.97;3.63;;;;;;;12.95;61.32;99348.19;4205652;28;20235;-38
2022/04/26 21:13:50;;;;;;;5.73;4.10;;;;;;;13.12;61.10;99324.00;4205382;28;20856;-35
2022/04/26 21:15:54;;;;;;;6.10;4.17;;;;;;;12.93;61.54;99349.41;4211963;28;20924;-38
2022/04/26 21:17:57;;;;;;;4.87;4.37;;;;;;;12.91;61.17;99349.59;4208587;28;20242;-38
2022/04/26 21:19:58;;;;;;;4.77;4.30;;;;;;;13.08;61.04;99326.22;4210242;28;20703;-36
2022/04/26 21:22:00;;;;;;;4.70;4.30;;;;;;;13.05;61.26;99329.25;4207538;28;20261;-40
2022/04/26 21:24:02;;;;;;;5.03;4.53;;;;;;;13.26;60.38;99312.44;4205174;28;20231;-40
2022/04/26 21:26:05;;;;;;;5.63;4.87;;;;;;;12.97;61.30;99340.00;4208621;28;20222;-36
2022/04/26 21:28:07;;;;;;;5.83;4.30;;;;;;;11.84;64.62;99422.44;4209530;28;20291;-39
2022/04/26 21:30:09;;;;;;;7.03;5.10;;;;;;;12.44;63.57;99407.53;4207037;28;20860;-40
2022/04/26 21:32:11;;;;;;;7.03;4.77;;;;;;;12.93;61.98;99344.09;4201704;28;20238;-39
2022/04/26 21:34:13;;;;;;;5.20;4.70;;;;;;;11.62;65.63;99429.34;4202830;28;20227;-40
2022/04/26 21:36:16;;;;;;;7.03;4.60;;;;;;;11.31;68.06;99462.09;4208428;28;20229;-35
2022/04/26 21:38:18;;;;;;;6.13;5.37;;;;;;;11.76;66.27;99453.59;4207464;28;20320;-38
2022/04/26 21:40:20;;;;;;;5.67;4.60;;;;;;;11.84;66.07;99457.06;4207936;28;20283;-40
2022/04/26 21:42:22;;;;;;;5.63;4.73;;;;;;;11.61;66.37;99459.66;4208101;28;20292;-34
2022/04/26 21:44:23;;;;;;;5.17;4.67;;;;;;;11.35;68.19;99462.56;4207353;28;20684;-36
2022/04/26 21:46:25;;;;;;;5.77;4.73;;;;;;;11.32;67.91;99471.72;4206425;28;20235;-38
2022/04/26 21:48:27;;;;;;;5.00;4.50;;;;;;;12.78;63.19;99336.84;4208591;28;20230;-38
2022/04/26 21:52:49;;;;;;;4.87;4.37;;;;;;;11.41;67.75;99464.56;4179792;28;20227;-36
2022/04/26 21:54:51;;;;;;;5.00;4.43;;;;;;;11.70;66.51;99442.63;4203519;28;20228;-37
2022/04/26 21:56:53;;;;;;;5.13;4.23;;;;;;;12.71;63.41;99351.09;4207197;28;20226;-35
2022/04/26 21:58:55;;;;;;;5.17;4.60;;;;;;;13.17;61.54;99294.91;4208000;28;20234;-40
2022/04/26 22:00:57;;;;;;;6.50;4.77;;;;;;;13.47;60.22;99263.59;4208469;28;20656;-38
2022/04/26 22:03:01;;;;;;;5.33;4.83;;;;;;;12.54;63.12;99371.78;4208157;28;20275;-40
2022/04/26 22:05:03;;;;;;;5.43;4.50;;;;;;;12.55;63.76;99394.78;4204755;28;20865;-35
2022/04/26 22:07:05;;;;;;;7.43;5.03;;;;;;;12.50;62.89;99373.16;4201534;28;20396;-42
2022/04/26 22:09:06;;;;;;;8.67;5.57;;;;;;;12.70;62.88;99379.63;4191110;28;20288;-36
2022/04/26 22:11:08;;;;;;;5.77;4.87;;;;;;;11.98;64.97;99428.03;4199956;28;20283;-38
2022/04/26 22:13:11;;;;;;;5.47;4.63;;;;;;;12.32;64.78;99429.44;4200458;28;20259;-39
2022/04/26 22:15:12;;;;;;;6.37;4.83;;;;;;;11.62;66.69;99463.13;4204235;28;20231;-41
2022/04/26 22:17:14;;;;;;;6.43;5.00;;;;;;;11.45;68.26;99486.34;4201046;28;20617;-37
2022/04/26 22:19:16;;;;;;;5.27;4.53;;;;;;;12.45;64.91;99403.03;4204345;28;20238;-37
2022/04/26 22:21:17;;;;;;;5.53;5.03;;;;;;;12.88;62.28;99328.63;4201850;28;20238;-40
2022/04/26 22:23:19;;;;;;;6.63;4.30;;;;;;;11.55;67.41;99471.00;4203527;28;20227;-40
2022/04/26 22:25:21;;;;;;;5.50;4.87;;;;;;;11.55;68.50;99484.31;4201958;28;20237;-34
2022/04/26 22:27:23;;;;;;;4.97;4.27;;;;;;;11.70;67.05;99473.75;4202832;28;20230;-41
2022/04/26 22:29:24;;;;;;;5.37;4.87;;;;;;;12.56;63.81;99367.94;4201083;28;20227;-36
2022/04/26 22:31:27;;;;;;;5.53;4.77;;;;;;;12.81;62.44;99343.69;4202344;28;20651;-40
2022/04/26 22:33:29;;;;;;;5.60;4.60;;;;;;;13.49;60.16;99285.59;4207470;28;20239;-40
2022/04/26 22:35:30;;;;;;;6.17;5.03;;;;;;;13.49;59.67;99288.28;4207346;28;20843;-40
2022/04/26 22:37:33;;;;;;;7.37;5.43;;;;;;;13.13;60.24;99325.63;4208453;28;20226;-40
2022/04/26 22:39:35;;;;;;;6.33;5.40;;;;;;;13.62;58.95;99295.59;4210251;28;20767;-36
2022/04/26 22:41:37;;;;;;;8.17;5.30;;;;;;;12.74;60.96;99391.59;4207164;28;20230;-40
2022/04/26 22:43:39;;;;;;;6.43;5.80;;;;;;;13.33;59.93;99329.41;4208731;28;20906;-40
2022/04/26 22:45:41;;;;;;;6.60;5.73;;;;;;;12.80;60.84;99392.69;4207743;28;20238;-35
2022/04/26 22:47:43;;;;;;;5.30;4.80;;;;;;;12.47;61.92;99444.50;4207816;28;20639;-41
2022/04/26 22:49:45;;;;;;;6.20;5.43;;;;;;;12.18;62.79;99461.19;4207477;28;20234;-36
2022/04/26 22:51:47;;;;;;;6.50;5.33;;;;;;;12.90;61.01;99411.97;4205337;28;20289;-40
2022/04/26 22:53:49;;;;;;;6.47;5.37;;;;;;;12.50;61.92;99439.81;4211374;28;21072;-36
2022/04/26 22:55:50;;;;;;;6.53;5.93;;;;;;;12.63;61.55;99432.88;4207077;28;20715;-41
2022/04/26 22:57:52;;;;;;;5.80;5.20;;;;;;;12.19;62.41;99472.72;4207798;28;20688;-38
2022/04/26 22:59:54;;;;;;;6.53;5.80;;;;;;;12.65;61.57;99438.84;4207142;28;20301;-36
2022/04/26 23:01:56;;;;;;;7.87;5.03;;;;;;;12.74;61.37;99431.63;4203179;28;20580;-33
2022/04/26 23:03:57;;;;;;;6.70;5.30;;;;;;;12.53;62.20;99452.81;4207698;28;20234;-40